createdAt,value
2017-12-21T00:01:18.033Z,7.70
2017-12-21T00:03:45.624Z,7.70
2017-12-21T00:06:13.171Z,7.70
2017-12-21T00:08:40.766Z,7.70
2017-12-21T00:11:08.349Z,7.70
2017-12-21T00:13:36.618Z,7.70
2017-12-21T00:16:04.302Z,7.80
2017-12-21T00:18:31.894Z,7.70
2017-12-21T00:20:59.461Z,7.70
2017-12-21T00:23:27.066Z,7.70
2017-12-21T00:25:54.672Z,7.70
2017-12-21T00:28:22.234Z,7.70
2017-12-21T00:30:49.841Z,7.70
2017-12-21T00:33:18.174Z,7.80
2017-12-21T00:35:45.865Z,7.70
2017-12-21T00:38:13.566Z,7.70
2017-12-21T00:40:41.148Z,7.70
2017-12-21T00:43:09.730Z,7.70
2017-12-21T00:45:37.339Z,7.80
2017-12-21T00:48:04.954Z,7.80
2017-12-21T00:50:32.527Z,7.80
2017-12-21T00:53:00.183Z,7.80
2017-12-21T00:55:27.798Z,7.80
2017-12-21T00:57:56.141Z,7.80
2017-12-21T01:00:23.848Z,7.80
2017-12-21T01:02:52.188Z,7.80
2017-12-21T01:05:19.830Z,7.80
2017-12-21T01:07:47.443Z,7.80
2017-12-21T01:10:15.006Z,7.80
2017-12-21T01:12:42.583Z,7.70
2017-12-21T01:15:10.905Z,7.80
2017-12-21T01:17:38.476Z,7.80
2017-12-21T01:20:06.062Z,7.80
2017-12-21T01:22:34.441Z,7.80
2017-12-21T01:25:02.102Z,7.80
2017-12-21T01:27:29.835Z,7.70
2017-12-21T01:29:57.540Z,7.80
2017-12-21T01:32:25.111Z,7.80
2017-12-21T01:34:52.813Z,7.80
2017-12-21T01:37:20.420Z,7.80
2017-12-21T01:39:47.978Z,7.80
2017-12-21T01:42:15.569Z,7.80
2017-12-21T01:44:43.914Z,7.80
2017-12-21T01:47:11.470Z,7.80
2017-12-21T01:49:39.046Z,7.80
2017-12-21T01:52:06.625Z,7.80
2017-12-21T01:54:34.981Z,7.70
2017-12-21T01:57:02.598Z,7.70
2017-12-21T01:59:30.180Z,7.70
2017-12-21T02:01:57.750Z,7.70
2017-12-21T02:04:25.426Z,7.70
2017-12-21T02:06:52.989Z,7.70
2017-12-21T02:09:20.590Z,7.70
2017-12-21T02:11:48.195Z,7.80
2017-12-21T02:14:15.743Z,7.70
2017-12-21T02:16:43.356Z,7.70
2017-12-21T02:19:10.902Z,7.80
2017-12-21T02:21:38.463Z,7.80
2017-12-21T02:24:06.049Z,7.80
2017-12-21T02:26:34.388Z,7.70
2017-12-21T02:29:02.150Z,7.70
2017-12-21T02:31:29.687Z,7.80
2017-12-21T02:33:57.286Z,7.70
2017-12-21T02:36:24.885Z,7.70
2017-12-21T02:38:52.418Z,7.70
2017-12-21T02:41:19.973Z,7.80
2017-12-21T02:43:47.578Z,7.80
2017-12-21T02:46:15.120Z,7.80
2017-12-21T02:48:42.700Z,7.70
2017-12-21T02:51:10.293Z,7.70
2017-12-21T02:53:37.879Z,7.80
2017-12-21T02:56:05.473Z,7.80
2017-12-21T02:58:33.051Z,7.80
2017-12-21T03:01:00.733Z,7.80
2017-12-21T03:03:29.074Z,7.80
2017-12-21T03:05:56.757Z,7.80
2017-12-21T03:08:24.318Z,7.80
2017-12-21T03:10:51.870Z,7.80
2017-12-21T03:13:19.525Z,7.80
2017-12-21T03:15:47.428Z,7.80
2017-12-21T03:18:15.745Z,7.80
2017-12-21T03:20:43.302Z,7.80
2017-12-21T03:23:10.922Z,7.80
2017-12-21T03:25:38.490Z,7.80
2017-12-21T03:28:06.851Z,7.80
2017-12-21T03:30:35.191Z,7.80
2017-12-21T03:33:02.954Z,7.80
2017-12-21T03:35:30.529Z,7.80
2017-12-21T03:37:58.193Z,7.80
2017-12-21T03:40:25.753Z,7.80
2017-12-21T03:42:53.333Z,7.80
2017-12-21T03:45:20.903Z,7.80
2017-12-21T03:47:48.492Z,7.80
2017-12-21T03:50:16.821Z,7.80
2017-12-21T03:52:44.396Z,7.80
2017-12-21T03:55:11.972Z,7.80
2017-12-21T03:57:39.536Z,7.80
2017-12-21T04:00:07.083Z,7.80
2017-12-21T04:02:34.734Z,7.80
2017-12-21T04:05:02.485Z,7.80
2017-12-21T04:07:30.193Z,7.80
2017-12-21T04:09:57.754Z,7.80
2017-12-21T04:12:25.366Z,7.80
2017-12-21T04:14:52.927Z,7.80
2017-12-21T04:17:20.515Z,7.70
2017-12-21T04:19:48.076Z,7.70
2017-12-21T04:22:15.766Z,7.70
2017-12-21T04:24:43.404Z,7.70
2017-12-21T04:27:11.790Z,7.70
2017-12-21T04:29:39.366Z,7.70
2017-12-21T04:32:06.924Z,7.70
2017-12-21T04:34:34.510Z,7.70
2017-12-21T04:37:02.090Z,7.70
2017-12-21T04:39:30.445Z,7.70
2017-12-21T04:41:58.193Z,7.70
2017-12-21T04:44:25.745Z,7.70
2017-12-21T04:46:53.433Z,7.70
2017-12-21T04:49:21.006Z,7.70
2017-12-21T04:51:48.616Z,7.70
2017-12-21T04:54:16.185Z,7.70
2017-12-21T04:56:43.758Z,7.70
2017-12-21T04:59:11.304Z,7.70
2017-12-21T05:01:38.938Z,7.70
2017-12-21T05:04:06.526Z,7.70
2017-12-21T05:06:34.133Z,7.70
2017-12-21T05:09:01.709Z,7.80
2017-12-21T05:11:29.253Z,7.80
2017-12-21T05:13:56.845Z,7.80
2017-12-21T05:16:25.265Z,7.80
2017-12-21T05:18:52.845Z,7.70
2017-12-21T05:21:20.406Z,7.80
2017-12-21T05:23:48.004Z,7.80
2017-12-21T05:26:15.577Z,7.80
2017-12-21T05:28:44.133Z,7.70
2017-12-21T05:31:11.711Z,7.70
2017-12-21T05:33:39.266Z,7.70
2017-12-21T05:36:06.862Z,7.70
2017-12-21T05:38:34.450Z,7.70
2017-12-21T05:41:02.105Z,7.70
2017-12-21T05:43:29.705Z,7.70
2017-12-21T05:45:57.290Z,7.70
2017-12-21T05:48:25.622Z,7.80
2017-12-21T05:50:53.204Z,7.70
2017-12-21T05:53:20.756Z,7.70
2017-12-21T05:55:48.331Z,7.70
2017-12-21T05:58:15.894Z,7.70
2017-12-21T06:00:44.239Z,7.70
2017-12-21T06:03:11.795Z,7.70
2017-12-21T06:05:39.369Z,7.70
2017-12-21T06:08:06.944Z,7.70
2017-12-21T06:10:34.694Z,7.70
2017-12-21T06:13:02.277Z,7.70
2017-12-21T06:15:29.866Z,7.70
2017-12-21T06:17:57.439Z,7.70
2017-12-21T06:20:25.203Z,7.70
2017-12-21T06:22:53.553Z,7.70
2017-12-21T06:25:21.685Z,7.70
2017-12-21T06:27:50.399Z,7.70
2017-12-21T06:30:18.794Z,7.70
2017-12-21T06:32:46.399Z,7.70
2017-12-21T06:35:14.742Z,7.70
2017-12-21T06:37:42.795Z,7.70
2017-12-21T06:40:10.557Z,7.70
2017-12-21T06:42:38.161Z,7.70
2017-12-21T06:45:05.756Z,7.70
2017-12-21T06:47:33.405Z,7.70
2017-12-21T06:50:01.749Z,7.70
2017-12-21T06:52:29.349Z,7.70
2017-12-21T06:54:56.903Z,7.70
2017-12-21T06:57:25.234Z,7.70
2017-12-21T06:59:52.807Z,7.70
2017-12-21T07:02:20.411Z,7.70
2017-12-21T07:04:48.733Z,7.70
2017-12-21T07:07:16.345Z,7.70
2017-12-21T07:09:44.723Z,7.70
2017-12-21T07:12:12.377Z,7.70
2017-12-21T07:14:39.958Z,7.70
2017-12-21T07:17:08.284Z,7.70
2017-12-21T07:19:35.874Z,7.70
2017-12-21T07:22:04.455Z,7.70
2017-12-21T07:24:32.093Z,7.70
2017-12-21T07:26:59.730Z,7.70
2017-12-21T07:29:27.449Z,7.70
2017-12-21T07:31:55.072Z,7.70
2017-12-21T07:34:22.691Z,7.70
2017-12-21T07:36:51.302Z,7.60
2017-12-21T07:39:19.643Z,7.60
2017-12-21T07:41:47.228Z,7.60
2017-12-21T07:44:14.806Z,7.60
2017-12-21T07:46:42.357Z,7.60
2017-12-21T07:49:10.730Z,7.70
2017-12-21T07:51:39.221Z,7.70
2017-12-21T07:54:07.609Z,7.70
2017-12-21T07:56:35.987Z,7.70
2017-12-21T07:59:04.378Z,7.70
2017-12-21T08:01:31.990Z,7.70
2017-12-21T08:03:59.566Z,7.70
2017-12-21T08:06:27.184Z,7.80
2017-12-21T08:08:55.039Z,7.80
2017-12-21T08:11:23.349Z,7.80
2017-12-21T08:13:51.125Z,7.80
2017-12-21T08:16:18.921Z,7.80
2017-12-21T08:18:46.519Z,7.80
2017-12-21T08:21:14.235Z,7.70
2017-12-21T08:23:41.791Z,7.80
2017-12-21T08:26:09.385Z,7.80
2017-12-21T08:28:37.857Z,7.90
2017-12-21T08:31:05.451Z,7.80
2017-12-21T08:33:33.033Z,7.90
2017-12-21T08:36:00.619Z,7.80
2017-12-21T08:38:28.193Z,7.90
2017-12-21T08:40:56.642Z,7.90
2017-12-21T08:43:24.520Z,7.90
2017-12-21T08:45:52.129Z,7.90
2017-12-21T08:48:19.747Z,7.90
2017-12-21T08:50:47.326Z,8.00
2017-12-21T08:53:14.924Z,8.00
2017-12-21T08:55:42.646Z,8.00
2017-12-21T08:58:10.213Z,8.00
2017-12-21T09:00:37.765Z,8.00
2017-12-21T09:03:05.330Z,8.00
2017-12-21T09:05:32.902Z,8.00
2017-12-21T09:08:01.305Z,8.10
2017-12-21T09:10:29.703Z,8.10
2017-12-21T09:12:57.269Z,8.10
2017-12-21T09:15:24.842Z,8.10
2017-12-21T09:17:52.454Z,8.10
2017-12-21T09:20:20.246Z,8.10
2017-12-21T09:22:48.645Z,8.30
2017-12-21T09:25:16.213Z,8.30
2017-12-21T09:27:43.825Z,8.30
2017-12-21T09:30:11.401Z,8.30
2017-12-21T09:32:39.001Z,8.30
2017-12-21T09:35:06.704Z,8.30
2017-12-21T09:37:34.342Z,8.30
2017-12-21T09:40:02.011Z,8.30
2017-12-21T09:42:29.640Z,8.30
2017-12-21T09:44:57.229Z,8.20
2017-12-21T09:47:24.990Z,8.30
2017-12-21T09:49:52.631Z,8.30
2017-12-21T09:52:20.237Z,8.30
2017-12-21T09:54:47.815Z,8.30
2017-12-21T09:57:15.389Z,8.30
2017-12-21T09:59:42.971Z,8.30
2017-12-21T10:02:11.301Z,8.40
2017-12-21T10:04:38.974Z,8.40
2017-12-21T10:07:06.549Z,8.40
2017-12-21T10:09:34.129Z,8.40
2017-12-21T10:12:04.430Z,8.50
2017-12-21T10:14:31.997Z,8.40
2017-12-21T10:16:59.571Z,8.40
2017-12-21T10:19:27.285Z,8.50
2017-12-21T10:21:54.900Z,8.50
2017-12-21T10:24:23.306Z,8.50
2017-12-21T10:26:51.705Z,8.50
2017-12-21T10:29:19.424Z,8.50
2017-12-21T10:31:47.804Z,8.60
2017-12-21T10:34:15.421Z,8.50
2017-12-21T10:36:43.014Z,8.50
2017-12-21T10:39:10.598Z,8.50
2017-12-21T10:41:38.949Z,8.60
2017-12-21T10:44:06.559Z,8.60
2017-12-21T10:46:35.005Z,8.70
2017-12-21T10:49:02.627Z,8.60
2017-12-21T10:51:30.185Z,8.70
2017-12-21T10:53:57.809Z,8.80
2017-12-21T10:56:25.491Z,8.70
2017-12-21T10:58:53.825Z,8.70
2017-12-21T11:01:21.389Z,8.70
2017-12-21T11:03:48.975Z,8.70
2017-12-21T11:06:17.514Z,8.80
2017-12-21T11:08:45.118Z,8.70
2017-12-21T11:11:12.706Z,8.70
2017-12-21T11:13:40.290Z,8.80
2017-12-21T11:16:08.029Z,8.90
2017-12-21T11:18:36.371Z,9.10
2017-12-21T11:21:04.609Z,9.10
2017-12-21T11:23:32.243Z,9.20
2017-12-21T11:25:59.795Z,9.30
2017-12-21T11:28:28.255Z,9.40
2017-12-21T11:30:55.798Z,9.40
2017-12-21T11:33:23.509Z,9.30
2017-12-21T11:35:51.643Z,9.30
2017-12-21T11:38:20.090Z,9.30
2017-12-21T11:40:47.743Z,9.30
2017-12-21T11:43:16.337Z,9.20
2017-12-21T11:45:43.924Z,9.20
2017-12-21T11:48:11.539Z,9.20
2017-12-21T11:50:39.188Z,9.20
2017-12-21T11:53:06.743Z,9.10
2017-12-21T11:55:34.326Z,9.20
2017-12-21T11:58:01.882Z,9.10
2017-12-21T12:00:29.608Z,9.20
2017-12-21T12:02:57.959Z,9.10
2017-12-21T12:05:25.581Z,9.10
2017-12-21T12:07:53.191Z,9.20
2017-12-21T12:10:31.413Z,9.10
2017-12-21T12:12:58.978Z,9.10
2017-12-21T12:15:26.642Z,9.10
2017-12-21T12:17:54.201Z,9.10
2017-12-21T12:20:21.888Z,9.10
2017-12-21T12:22:50.263Z,9.10
2017-12-21T12:25:18.582Z,9.10
2017-12-21T12:27:46.177Z,9.10
2017-12-21T12:30:13.738Z,9.10
2017-12-21T12:32:41.308Z,9.10
2017-12-21T12:35:09.663Z,9.20
2017-12-21T12:37:37.207Z,9.20
2017-12-21T12:40:04.806Z,9.30
2017-12-21T12:42:32.862Z,9.20
2017-12-21T12:45:00.701Z,9.20
2017-12-21T12:47:28.302Z,9.20
2017-12-21T12:49:55.853Z,9.20
2017-12-21T12:52:23.461Z,9.20
2017-12-21T12:54:51.777Z,9.30
2017-12-21T12:57:19.375Z,9.20
2017-12-21T12:59:46.960Z,9.30
2017-12-21T13:02:15.207Z,9.30
2017-12-21T13:04:42.815Z,9.30
2017-12-21T13:07:11.205Z,9.30
2017-12-21T13:09:38.800Z,9.30
2017-12-21T13:12:07.402Z,9.30
2017-12-21T13:14:34.970Z,9.40
2017-12-21T13:17:02.701Z,9.40
2017-12-21T13:19:30.294Z,9.30
2017-12-21T13:21:57.858Z,9.40
2017-12-21T13:24:25.444Z,9.30
2017-12-21T13:26:53.921Z,9.30
2017-12-21T13:29:21.591Z,9.30
2017-12-21T13:31:50.027Z,9.30
2017-12-21T13:34:17.640Z,9.30
2017-12-21T13:36:46.057Z,9.30
2017-12-21T13:39:13.626Z,9.30
2017-12-21T13:41:41.305Z,9.30
2017-12-21T13:44:09.138Z,9.30
2017-12-21T13:46:36.837Z,9.30
2017-12-21T13:49:04.391Z,9.40
2017-12-21T13:51:31.966Z,9.40
2017-12-21T13:53:59.564Z,9.40
2017-12-21T13:56:27.982Z,9.40
2017-12-21T13:58:55.921Z,9.40
2017-12-21T14:01:24.249Z,9.40
2017-12-21T14:03:51.842Z,9.30
2017-12-21T14:06:19.451Z,9.30
2017-12-21T14:08:47.033Z,9.30
2017-12-21T14:11:14.686Z,9.30
2017-12-21T14:13:42.490Z,9.30
2017-12-21T14:16:10.087Z,9.30
2017-12-21T14:18:38.424Z,9.30
2017-12-21T14:21:06.009Z,9.30
2017-12-21T14:23:33.571Z,9.30
2017-12-21T14:26:01.924Z,9.30
2017-12-21T14:28:29.501Z,9.30
2017-12-21T14:30:57.066Z,9.30
2017-12-21T14:33:24.822Z,9.30
2017-12-21T14:35:52.508Z,9.20
2017-12-21T14:38:20.225Z,9.20
2017-12-21T14:40:48.476Z,9.20
2017-12-21T14:43:16.854Z,9.20
2017-12-21T14:45:44.472Z,9.20
2017-12-21T14:48:12.130Z,9.20
2017-12-21T14:50:39.746Z,9.20
2017-12-21T14:53:07.336Z,9.20
2017-12-21T14:55:35.083Z,9.20
2017-12-21T14:58:02.675Z,9.20
2017-12-21T15:00:30.238Z,9.10
2017-12-21T15:02:57.835Z,9.10
2017-12-21T15:05:26.159Z,9.10
2017-12-21T15:07:53.740Z,9.10
2017-12-21T15:10:21.311Z,9.10
2017-12-21T15:12:48.923Z,9.10
2017-12-21T15:15:16.690Z,9.10
2017-12-21T15:17:44.354Z,9.10
2017-12-21T15:20:12.731Z,9.10
2017-12-21T15:22:40.360Z,9.10
2017-12-21T15:25:07.950Z,9.10
2017-12-21T15:27:36.522Z,9.10
2017-12-21T15:30:04.126Z,9.10
2017-12-21T15:32:31.702Z,9.10
2017-12-21T15:34:59.305Z,9.10
2017-12-21T15:37:26.870Z,9.10
2017-12-21T15:39:55.253Z,9.00
2017-12-21T15:42:23.623Z,9.00
2017-12-21T15:44:51.186Z,9.00
2017-12-21T15:47:18.778Z,9.00
2017-12-21T15:49:46.360Z,9.00
2017-12-21T15:52:13.942Z,9.00
2017-12-21T15:54:41.493Z,9.00
2017-12-21T15:57:09.095Z,9.00
2017-12-21T15:59:36.817Z,9.00
2017-12-21T16:02:04.394Z,9.10
2017-12-21T16:04:31.961Z,9.00
2017-12-21T16:06:59.539Z,9.00
2017-12-21T16:09:39.616Z,9.00
2017-12-21T16:12:08.461Z,9.00
2017-12-21T16:14:36.315Z,9.00
2017-12-21T16:17:03.969Z,9.10
2017-12-21T16:19:31.643Z,9.10
2017-12-21T16:21:59.243Z,9.10
2017-12-21T16:24:27.556Z,9.10
2017-12-21T16:26:55.973Z,9.10
2017-12-21T16:29:24.282Z,9.00
2017-12-21T16:31:51.874Z,9.00
2017-12-21T16:34:20.276Z,9.00
2017-12-21T16:36:47.890Z,9.00
2017-12-21T16:39:15.490Z,9.00
2017-12-21T16:41:44.029Z,9.00
2017-12-21T16:44:12.517Z,9.00
2017-12-21T16:46:40.107Z,9.00
2017-12-21T16:49:07.766Z,9.00
2017-12-21T16:51:35.356Z,9.00
2017-12-21T16:54:03.652Z,9.00
2017-12-21T16:56:31.355Z,9.00
2017-12-21T16:58:58.995Z,9.00
2017-12-21T17:01:27.385Z,9.00
2017-12-21T17:03:55.758Z,9.00
2017-12-21T17:06:24.178Z,9.00
2017-12-21T17:08:51.871Z,9.00
2017-12-21T17:11:19.495Z,9.00
2017-12-21T17:13:47.171Z,9.00
2017-12-21T17:16:14.775Z,9.00
2017-12-21T17:18:42.354Z,9.00
2017-12-21T17:21:10.707Z,9.00
2017-12-21T17:23:38.310Z,9.00
2017-12-21T17:26:05.900Z,9.00
2017-12-21T17:28:33.539Z,9.00
2017-12-21T17:31:02.444Z,9.00
2017-12-21T17:33:30.013Z,9.00
2017-12-21T17:35:57.576Z,8.90
2017-12-21T17:38:25.168Z,8.90
2017-12-21T17:40:52.816Z,8.90
2017-12-21T17:43:20.423Z,8.90
2017-12-21T17:45:48.327Z,8.90
2017-12-21T17:48:15.979Z,8.90
2017-12-21T17:50:43.554Z,8.90
2017-12-21T17:53:11.681Z,8.90
2017-12-21T17:55:40.022Z,8.90
2017-12-21T17:58:07.577Z,8.90
2017-12-21T18:00:35.149Z,8.90
2017-12-21T18:03:04.018Z,8.90
2017-12-21T18:05:31.694Z,8.90
2017-12-21T18:07:59.345Z,8.90
2017-12-21T18:10:26.910Z,8.90
2017-12-21T18:12:54.469Z,8.90
2017-12-21T18:15:22.060Z,8.80
2017-12-21T18:17:49.680Z,8.90
2017-12-21T18:20:17.262Z,8.90
2017-12-21T18:22:44.974Z,8.90
2017-12-21T18:25:12.553Z,8.90
2017-12-21T18:27:42.537Z,9.00
2017-12-21T18:30:10.172Z,8.90
2017-12-21T18:32:37.813Z,8.90
2017-12-21T18:35:05.422Z,9.00
2017-12-21T18:37:33.026Z,9.00
2017-12-21T18:40:00.618Z,9.00
2017-12-21T18:42:29.021Z,9.00
2017-12-21T18:44:57.361Z,9.00
2017-12-21T18:47:24.947Z,9.00
2017-12-21T18:49:52.519Z,9.10
2017-12-21T18:52:20.867Z,9.10
2017-12-21T18:54:48.448Z,9.00
2017-12-21T18:57:16.054Z,9.10
2017-12-21T18:59:43.749Z,9.10
2017-12-21T19:02:11.325Z,9.00
2017-12-21T19:04:38.916Z,9.10
2017-12-21T19:07:07.239Z,9.10
2017-12-21T19:09:34.930Z,9.10
2017-12-21T19:12:02.499Z,9.10
2017-12-21T19:14:30.083Z,9.00
2017-12-21T19:16:58.512Z,9.00
2017-12-21T19:19:26.074Z,9.00
2017-12-21T19:21:53.678Z,9.00
2017-12-21T19:24:22.052Z,9.00
2017-12-21T19:26:49.687Z,9.10
2017-12-21T19:29:17.281Z,9.00
2017-12-21T19:31:44.866Z,9.00
2017-12-21T19:34:12.459Z,9.00
2017-12-21T19:36:40.031Z,9.00
2017-12-21T19:39:07.755Z,9.00
2017-12-21T19:41:36.182Z,9.00
2017-12-21T19:44:03.993Z,9.00
2017-12-21T19:46:33.496Z,9.00
2017-12-21T19:49:01.870Z,9.00
2017-12-21T19:51:30.218Z,9.00
2017-12-21T19:53:58.019Z,9.00
2017-12-21T19:56:25.671Z,9.00
2017-12-21T19:58:53.499Z,8.90
2017-12-21T20:01:21.160Z,9.00
2017-12-21T20:03:52.069Z,8.90
2017-12-21T20:06:19.807Z,8.90
2017-12-21T20:08:48.304Z,9.00
2017-12-21T20:11:16.741Z,9.00
2017-12-21T20:13:44.406Z,8.90
2017-12-21T20:16:12.015Z,9.00
2017-12-21T20:18:40.469Z,9.00
2017-12-21T20:21:08.088Z,8.90
2017-12-21T20:23:35.714Z,8.90
2017-12-21T20:26:03.362Z,8.90
2017-12-21T20:28:31.196Z,8.90
2017-12-21T20:30:58.840Z,8.80
2017-12-21T20:33:26.454Z,8.80
2017-12-21T20:35:54.034Z,8.70
2017-12-21T20:38:21.837Z,8.60
2017-12-21T20:40:49.459Z,8.60
2017-12-21T20:43:17.196Z,8.60
2017-12-21T20:45:44.806Z,8.60
2017-12-21T20:48:12.398Z,8.60
2017-12-21T20:50:40.040Z,8.70
2017-12-21T20:53:07.678Z,8.70
2017-12-21T20:55:35.298Z,8.70
2017-12-21T20:58:03.861Z,8.80
2017-12-21T21:00:31.488Z,8.70
2017-12-21T21:02:59.104Z,8.80
2017-12-21T21:05:27.441Z,8.80
2017-12-21T21:07:54.994Z,8.80
2017-12-21T21:10:22.593Z,8.90
2017-12-21T21:12:50.196Z,8.80
2017-12-21T21:15:17.827Z,8.90
2017-12-21T21:17:46.165Z,8.90
2017-12-21T21:20:14.752Z,8.90
2017-12-21T21:22:42.363Z,8.90
2017-12-21T21:25:09.969Z,8.90
2017-12-21T21:27:37.593Z,8.80
2017-12-21T21:30:05.934Z,8.80
2017-12-21T21:32:33.542Z,8.80
2017-12-21T21:35:01.908Z,8.90
2017-12-21T21:37:30.305Z,8.80
2017-12-21T21:39:58.018Z,8.90
2017-12-21T21:42:25.583Z,8.90
2017-12-21T21:44:54.177Z,8.90
2017-12-21T21:47:21.780Z,8.90
2017-12-21T21:49:50.145Z,8.80
2017-12-21T21:52:17.713Z,8.80
2017-12-21T21:54:46.131Z,8.80
2017-12-21T21:57:13.703Z,8.80
2017-12-21T21:59:41.255Z,8.80
2017-12-21T22:02:08.882Z,8.90
2017-12-21T22:04:37.223Z,8.90
2017-12-21T22:07:04.786Z,8.90
2017-12-21T22:09:32.372Z,8.90
2017-12-21T22:12:00.885Z,8.90
2017-12-21T22:14:28.491Z,8.90
2017-12-21T22:16:56.067Z,8.90
2017-12-21T22:19:23.666Z,8.90
2017-12-21T22:21:51.284Z,8.90
2017-12-21T22:24:24.565Z,8.90
2017-12-21T22:26:52.161Z,9.00
2017-12-21T22:29:19.758Z,8.90
2017-12-21T22:31:47.579Z,8.90
2017-12-21T22:34:15.166Z,8.90
2017-12-21T22:36:42.767Z,8.90
2017-12-21T22:39:11.161Z,8.90
2017-12-21T22:41:38.925Z,8.90
2017-12-21T22:44:07.257Z,8.90
2017-12-21T22:46:34.824Z,8.90
2017-12-21T22:49:02.406Z,8.90
2017-12-21T22:51:30.770Z,8.80
2017-12-21T22:53:58.383Z,8.80
2017-12-21T22:56:25.954Z,8.80
2017-12-21T22:58:53.578Z,8.80
2017-12-21T23:01:21.900Z,8.90
2017-12-21T23:03:49.469Z,8.80
2017-12-21T23:06:17.219Z,8.90
2017-12-21T23:08:44.783Z,8.80
2017-12-21T23:11:12.391Z,8.80
2017-12-21T23:13:39.976Z,8.80
2017-12-21T23:16:08.344Z,8.80
2017-12-21T23:18:36.726Z,8.70
2017-12-21T23:21:05.076Z,8.70
2017-12-21T23:23:32.686Z,8.70
2017-12-21T23:26:01.122Z,8.80
2017-12-21T23:28:28.821Z,8.80
2017-12-21T23:30:57.578Z,8.90
2017-12-21T23:33:25.572Z,8.90
2017-12-21T23:35:53.149Z,8.90
2017-12-21T23:38:20.876Z,9.00
2017-12-21T23:40:49.324Z,8.90
2017-12-21T23:43:18.358Z,8.90
2017-12-21T23:45:46.128Z,8.90
2017-12-21T23:48:14.008Z,8.90
2017-12-21T23:50:41.818Z,8.90
2017-12-21T23:53:10.252Z,8.90
2017-12-21T23:55:38.846Z,9.00
2017-12-21T23:58:06.562Z,8.90
